sensor_id;sensor_type;location;lat;lon;timestamp;P1;durP1;ratioP1;P2;durP2;ratioP2
12369;SDS011;6249;52.128;9.986;2023-03-23T00:02:31;3.17;;;1.20;;
12369;SDS011;6249;52.128;9.986;2023-03-23T00:05:55;3.10;;;1.10;;
12369;SDS011;6249;52.128;9.986;2023-03-23T00:09:19;3.33;;;1.13;;
12369;SDS011;6249;52.128;9.986;2023-03-23T00:12:45;12.03;;;1.67;;
12369;SDS011;6249;52.128;9.986;2023-03-23T00:16:09;3.80;;;1.00;;
12369;SDS011;6249;52.128;9.986;2023-03-23T00:19:39;6.20;;;1.30;;
12369;SDS011;6249;52.128;9.986;2023-03-23T00:23:06;6.23;;;1.80;;
12369;SDS011;6249;52.128;9.986;2023-03-23T00:26:27;6.40;;;1.83;;
12369;SDS011;6249;52.128;9.986;2023-03-23T00:29:49;11.20;;;1.80;;
12369;SDS011;6249;52.128;9.986;2023-03-23T00:33:12;7.47;;;1.80;;
12369;SDS011;6249;52.128;9.986;2023-03-23T00:36:33;4.97;;;1.57;;
12369;SDS011;6249;52.128;9.986;2023-03-23T00:39:55;5.10;;;1.33;;
12369;SDS011;6249;52.128;9.986;2023-03-23T00:43:19;5.40;;;1.70;;
12369;SDS011;6249;52.128;9.986;2023-03-23T00:46:40;4.27;;;1.30;;
12369;SDS011;6249;52.128;9.986;2023-03-23T00:50:04;6.07;;;1.27;;
12369;SDS011;6249;52.128;9.986;2023-03-23T00:53:26;4.93;;;1.87;;
12369;SDS011;6249;52.128;9.986;2023-03-23T00:56:49;7.30;;;1.60;;
12369;SDS011;6249;52.128;9.986;2023-03-23T01:00:10;2.50;;;1.10;;
12369;SDS011;6249;52.128;9.986;2023-03-23T01:03:33;4.47;;;1.13;;
12369;SDS011;6249;52.128;9.986;2023-03-23T01:06:54;4.70;;;1.87;;
12369;SDS011;6249;52.128;9.986;2023-03-23T01:10:16;3.73;;;1.33;;
12369;SDS011;6249;52.128;9.986;2023-03-23T01:13:37;5.17;;;1.80;;
12369;SDS011;6249;52.128;9.986;2023-03-23T01:16:58;7.53;;;1.80;;
12369;SDS011;6249;52.128;9.986;2023-03-23T01:20:21;3.87;;;1.47;;
12369;SDS011;6249;52.128;9.986;2023-03-23T01:23:46;4.43;;;1.60;;
12369;SDS011;6249;52.128;9.986;2023-03-23T01:27:10;9.87;;;2.10;;
12369;SDS011;6249;52.128;9.986;2023-03-23T01:30:31;11.53;;;2.00;;
12369;SDS011;6249;52.128;9.986;2023-03-23T01:33:54;6.37;;;1.67;;
12369;SDS011;6249;52.128;9.986;2023-03-23T01:37:17;4.90;;;1.70;;
12369;SDS011;6249;52.128;9.986;2023-03-23T01:40:37;8.67;;;1.80;;
12369;SDS011;6249;52.128;9.986;2023-03-23T01:44:08;3.93;;;1.70;;
12369;SDS011;6249;52.128;9.986;2023-03-23T01:47:45;7.43;;;1.90;;
12369;SDS011;6249;52.128;9.986;2023-03-23T01:51:12;3.77;;;1.20;;
12369;SDS011;6249;52.128;9.986;2023-03-23T01:54:38;6.87;;;1.40;;
12369;SDS011;6249;52.128;9.986;2023-03-23T01:58:00;8.83;;;1.83;;
12369;SDS011;6249;52.128;9.986;2023-03-23T02:01:21;5.30;;;1.30;;
12369;SDS011;6249;52.128;9.986;2023-03-23T02:04:44;6.60;;;1.30;;
12369;SDS011;6249;52.128;9.986;2023-03-23T02:08:06;3.83;;;1.57;;
12369;SDS011;6249;52.128;9.986;2023-03-23T02:11:28;6.40;;;1.23;;
12369;SDS011;6249;52.128;9.986;2023-03-23T02:14:49;4.93;;;1.67;;
12369;SDS011;6249;52.128;9.986;2023-03-23T02:18:44;6.07;;;1.50;;
12369;SDS011;6249;52.128;9.986;2023-03-23T02:37:11;6.33;;;1.50;;
12369;SDS011;6249;52.128;9.986;2023-03-23T02:40:41;12.67;;;1.70;;
12369;SDS011;6249;52.128;9.986;2023-03-23T02:44:05;4.83;;;1.40;;
12369;SDS011;6249;52.128;9.986;2023-03-23T02:47:27;4.23;;;1.60;;
12369;SDS011;6249;52.128;9.986;2023-03-23T02:50:51;4.07;;;1.70;;
12369;SDS011;6249;52.128;9.986;2023-03-23T02:54:18;4.60;;;1.73;;
12369;SDS011;6249;52.128;9.986;2023-03-23T02:57:42;5.93;;;2.10;;
12369;SDS011;6249;52.128;9.986;2023-03-23T03:02:05;9.10;;;2.30;;
12369;SDS011;6249;52.128;9.986;2023-03-23T03:12:13;7.00;;;2.17;;
12369;SDS011;6249;52.128;9.986;2023-03-23T03:19:31;4.80;;;1.97;;
12369;SDS011;6249;52.128;9.986;2023-03-23T03:22:55;7.60;;;2.53;;
12369;SDS011;6249;52.128;9.986;2023-03-23T03:26:17;5.13;;;2.47;;
12369;SDS011;6249;52.128;9.986;2023-03-23T03:29:40;5.57;;;2.10;;
12369;SDS011;6249;52.128;9.986;2023-03-23T03:33:04;10.27;;;2.83;;
12369;SDS011;6249;52.128;9.986;2023-03-23T03:36:28;7.40;;;2.30;;
12369;SDS011;6249;52.128;9.986;2023-03-23T03:39:54;7.77;;;2.27;;
12369;SDS011;6249;52.128;9.986;2023-03-23T03:43:15;5.13;;;2.00;;
12369;SDS011;6249;52.128;9.986;2023-03-23T03:46:36;7.63;;;3.27;;
12369;SDS011;6249;52.128;9.986;2023-03-23T03:49:59;11.33;;;3.07;;
12369;SDS011;6249;52.128;9.986;2023-03-23T03:53:22;6.00;;;3.00;;
12369;SDS011;6249;52.128;9.986;2023-03-23T03:56:46;4.93;;;2.30;;
12369;SDS011;6249;52.128;9.986;2023-03-23T04:00:07;6.83;;;2.70;;
12369;SDS011;6249;52.128;9.986;2023-03-23T04:03:34;5.37;;;2.17;;
12369;SDS011;6249;52.128;9.986;2023-03-23T04:06:58;8.70;;;2.57;;
12369;SDS011;6249;52.128;9.986;2023-03-23T04:10:19;7.53;;;2.50;;
12369;SDS011;6249;52.128;9.986;2023-03-23T04:13:41;7.03;;;2.17;;
12369;SDS011;6249;52.128;9.986;2023-03-23T04:17:02;10.10;;;2.13;;
12369;SDS011;6249;52.128;9.986;2023-03-23T04:20:23;6.13;;;2.33;;
12369;SDS011;6249;52.128;9.986;2023-03-23T04:23:45;5.77;;;2.30;;
12369;SDS011;6249;52.128;9.986;2023-03-23T04:27:06;8.53;;;2.30;;
12369;SDS011;6249;52.128;9.986;2023-03-23T04:30:29;3.90;;;1.60;;
12369;SDS011;6249;52.128;9.986;2023-03-23T04:33:51;8.00;;;2.03;;
12369;SDS011;6249;52.128;9.986;2023-03-23T04:37:12;4.50;;;2.10;;
12369;SDS011;6249;52.128;9.986;2023-03-23T04:40:35;14.07;;;2.33;;
12369;SDS011;6249;52.128;9.986;2023-03-23T04:43:57;5.27;;;2.00;;
12369;SDS011;6249;52.128;9.986;2023-03-23T04:47:23;5.23;;;1.87;;
12369;SDS011;6249;52.128;9.986;2023-03-23T04:50:44;3.57;;;1.53;;
12369;SDS011;6249;52.128;9.986;2023-03-23T04:54:05;4.07;;;1.63;;
12369;SDS011;6249;52.128;9.986;2023-03-23T04:57:31;3.33;;;1.50;;
12369;SDS011;6249;52.128;9.986;2023-03-23T05:00:52;5.40;;;1.40;;
12369;SDS011;6249;52.128;9.986;2023-03-23T05:04:12;5.27;;;1.80;;
12369;SDS011;6249;52.128;9.986;2023-03-23T05:07:37;8.07;;;1.70;;
12369;SDS011;6249;52.128;9.986;2023-03-23T05:10:58;3.53;;;1.33;;
12369;SDS011;6249;52.128;9.986;2023-03-23T05:14:22;4.37;;;1.57;;
12369;SDS011;6249;52.128;9.986;2023-03-23T05:17:43;5.00;;;1.93;;
12369;SDS011;6249;52.128;9.986;2023-03-23T05:21:08;3.77;;;1.73;;
12369;SDS011;6249;52.128;9.986;2023-03-23T05:24:31;4.27;;;1.70;;
12369;SDS011;6249;52.128;9.986;2023-03-23T05:27:52;2.93;;;1.20;;
12369;SDS011;6249;52.128;9.986;2023-03-23T05:31:13;3.80;;;1.80;;
12369;SDS011;6249;52.128;9.986;2023-03-23T05:34:34;5.17;;;1.60;;
12369;SDS011;6249;52.128;9.986;2023-03-23T05:37:55;4.20;;;1.67;;
12369;SDS011;6249;52.128;9.986;2023-03-23T05:41:16;3.40;;;1.53;;
12369;SDS011;6249;52.128;9.986;2023-03-23T05:44:37;7.20;;;1.73;;
12369;SDS011;6249;52.128;9.986;2023-03-23T05:47:58;5.10;;;1.53;;
12369;SDS011;6249;52.128;9.986;2023-03-23T05:51:18;3.07;;;1.40;;
12369;SDS011;6249;52.128;9.986;2023-03-23T05:54:39;3.20;;;1.60;;
12369;SDS011;6249;52.128;9.986;2023-03-23T05:58:01;3.20;;;1.30;;
12369;SDS011;6249;52.128;9.986;2023-03-23T06:01:26;3.57;;;1.47;;
12369;SDS011;6249;52.128;9.986;2023-03-23T06:04:47;5.33;;;1.53;;
12369;SDS011;6249;52.128;9.986;2023-03-23T06:08:10;2.83;;;1.37;;
12369;SDS011;6249;52.128;9.986;2023-03-23T06:11:32;3.90;;;1.50;;
12369;SDS011;6249;52.128;9.986;2023-03-23T06:14:59;3.23;;;1.27;;
12369;SDS011;6249;52.128;9.986;2023-03-23T06:18:20;4.30;;;1.60;;
12369;SDS011;6249;52.128;9.986;2023-03-23T06:21:42;3.20;;;1.83;;
12369;SDS011;6249;52.128;9.986;2023-03-23T06:25:04;3.10;;;1.63;;
12369;SDS011;6249;52.128;9.986;2023-03-23T06:28:26;4.03;;;1.53;;
12369;SDS011;6249;52.128;9.986;2023-03-23T06:31:48;3.63;;;1.63;;
12369;SDS011;6249;52.128;9.986;2023-03-23T06:35:14;6.20;;;1.87;;
12369;SDS011;6249;52.128;9.986;2023-03-23T06:38:35;4.33;;;1.53;;
12369;SDS011;6249;52.128;9.986;2023-03-23T06:41:56;5.50;;;1.60;;
12369;SDS011;6249;52.128;9.986;2023-03-23T06:45:19;5.40;;;1.60;;
12369;SDS011;6249;52.128;9.986;2023-03-23T06:48:39;3.03;;;1.50;;
12369;SDS011;6249;52.128;9.986;2023-03-23T06:52:01;2.17;;;1.00;;
12369;SDS011;6249;52.128;9.986;2023-03-23T06:55:26;2.73;;;1.17;;
12369;SDS011;6249;52.128;9.986;2023-03-23T06:58:48;4.20;;;1.23;;
12369;SDS011;6249;52.128;9.986;2023-03-23T07:02:12;3.70;;;1.20;;
12369;SDS011;6249;52.128;9.986;2023-03-23T07:05:34;3.90;;;1.67;;
12369;SDS011;6249;52.128;9.986;2023-03-23T07:08:55;5.10;;;1.83;;
12369;SDS011;6249;52.128;9.986;2023-03-23T07:12:20;4.03;;;1.20;;
12369;SDS011;6249;52.128;9.986;2023-03-23T07:15:43;2.77;;;1.30;;
12369;SDS011;6249;52.128;9.986;2023-03-23T07:19:04;2.80;;;1.30;;
12369;SDS011;6249;52.128;9.986;2023-03-23T07:22:25;6.27;;;2.27;;
12369;SDS011;6249;52.128;9.986;2023-03-23T07:25:45;6.60;;;1.80;;
12369;SDS011;6249;52.128;9.986;2023-03-23T07:29:08;4.43;;;1.10;;
12369;SDS011;6249;52.128;9.986;2023-03-23T07:32:29;6.80;;;1.40;;
12369;SDS011;6249;52.128;9.986;2023-03-23T07:35:50;5.60;;;1.57;;
12369;SDS011;6249;52.128;9.986;2023-03-23T07:39:13;2.80;;;1.20;;
12369;SDS011;6249;52.128;9.986;2023-03-23T07:42:33;4.37;;;0.97;;
12369;SDS011;6249;52.128;9.986;2023-03-23T07:45:54;3.40;;;1.00;;
12369;SDS011;6249;52.128;9.986;2023-03-23T07:49:15;4.03;;;1.30;;
12369;SDS011;6249;52.128;9.986;2023-03-23T07:52:36;5.27;;;1.23;;
12369;SDS011;6249;52.128;9.986;2023-03-23T07:55:57;6.53;;;1.53;;
12369;SDS011;6249;52.128;9.986;2023-03-23T07:59:20;3.13;;;0.90;;
12369;SDS011;6249;52.128;9.986;2023-03-23T08:02:41;5.20;;;1.33;;
12369;SDS011;6249;52.128;9.986;2023-03-23T08:06:04;3.77;;;1.40;;
12369;SDS011;6249;52.128;9.986;2023-03-23T08:09:25;4.70;;;1.60;;
12369;SDS011;6249;52.128;9.986;2023-03-23T08:12:50;4.50;;;1.10;;
12369;SDS011;6249;52.128;9.986;2023-03-23T08:16:12;2.93;;;1.23;;
12369;SDS011;6249;52.128;9.986;2023-03-23T08:19:33;4.63;;;1.80;;
12369;SDS011;6249;52.128;9.986;2023-03-23T08:22:56;5.07;;;1.30;;
12369;SDS011;6249;52.128;9.986;2023-03-23T08:26:20;5.40;;;1.50;;
12369;SDS011;6249;52.128;9.986;2023-03-23T08:29:44;2.97;;;1.33;;
12369;SDS011;6249;52.128;9.986;2023-03-23T08:33:06;5.37;;;1.70;;
12369;SDS011;6249;52.128;9.986;2023-03-23T08:36:28;2.60;;;1.00;;
12369;SDS011;6249;52.128;9.986;2023-03-23T08:39:52;5.33;;;1.37;;
12369;SDS011;6249;52.128;9.986;2023-03-23T08:43:18;6.00;;;1.93;;
12369;SDS011;6249;52.128;9.986;2023-03-23T08:46:39;4.60;;;1.60;;
12369;SDS011;6249;52.128;9.986;2023-03-23T08:49:59;7.30;;;1.60;;
12369;SDS011;6249;52.128;9.986;2023-03-23T08:53:22;7.20;;;1.63;;
12369;SDS011;6249;52.128;9.986;2023-03-23T08:56:43;4.97;;;1.77;;
12369;SDS011;6249;52.128;9.986;2023-03-23T09:00:04;5.10;;;1.70;;
12369;SDS011;6249;52.128;9.986;2023-03-23T09:03:46;5.53;;;1.40;;
12369;SDS011;6249;52.128;9.986;2023-03-23T09:07:10;5.00;;;1.90;;
12369;SDS011;6249;52.128;9.986;2023-03-23T09:10:34;5.90;;;2.10;;
12369;SDS011;6249;52.128;9.986;2023-03-23T09:13:54;11.80;;;1.87;;
12369;SDS011;6249;52.128;9.986;2023-03-23T09:17:17;4.93;;;1.13;;
12369;SDS011;6249;52.128;9.986;2023-03-23T09:20:38;7.33;;;2.20;;
12369;SDS011;6249;52.128;9.986;2023-03-23T09:24:02;9.33;;;1.80;;
12369;SDS011;6249;52.128;9.986;2023-03-23T09:27:27;8.70;;;1.90;;
12369;SDS011;6249;52.128;9.986;2023-03-23T09:30:48;6.57;;;1.60;;
12369;SDS011;6249;52.128;9.986;2023-03-23T09:34:13;4.77;;;1.17;;
12369;SDS011;6249;52.128;9.986;2023-03-23T09:37:35;13.43;;;2.03;;
12369;SDS011;6249;52.128;9.986;2023-03-23T09:45:04;4.67;;;1.30;;
12369;SDS011;6249;52.128;9.986;2023-03-23T09:48:46;6.77;;;1.77;;
12369;SDS011;6249;52.128;9.986;2023-03-23T09:52:35;11.13;;;1.77;;
12369;SDS011;6249;52.128;9.986;2023-03-23T09:56:08;5.73;;;1.70;;
12369;SDS011;6249;52.128;9.986;2023-03-23T09:59:44;4.10;;;1.60;;
12369;SDS011;6249;52.128;9.986;2023-03-23T10:03:16;6.87;;;1.53;;
12369;SDS011;6249;52.128;9.986;2023-03-23T10:06:38;10.43;;;1.73;;
12369;SDS011;6249;52.128;9.986;2023-03-23T10:10:01;11.20;;;1.80;;
12369;SDS011;6249;52.128;9.986;2023-03-23T10:20:21;8.27;;;1.80;;
12369;SDS011;6249;52.128;9.986;2023-03-23T10:31:01;7.80;;;1.90;;
12369;SDS011;6249;52.128;9.986;2023-03-23T10:34:25;7.73;;;2.37;;
12369;SDS011;6249;52.128;9.986;2023-03-23T10:37:54;7.50;;;2.57;;
12369;SDS011;6249;52.128;9.986;2023-03-23T10:41:23;11.33;;;1.63;;
12369;SDS011;6249;52.128;9.986;2023-03-23T10:44:44;7.23;;;1.70;;
12369;SDS011;6249;52.128;9.986;2023-03-23T10:48:15;9.33;;;1.50;;
12369;SDS011;6249;52.128;9.986;2023-03-23T10:51:46;6.33;;;1.73;;
12369;SDS011;6249;52.128;9.986;2023-03-23T10:55:17;7.17;;;1.83;;
12369;SDS011;6249;52.128;9.986;2023-03-23T10:58:40;8.87;;;2.40;;
12369;SDS011;6249;52.128;9.986;2023-03-23T11:02:02;9.00;;;2.20;;
12369;SDS011;6249;52.128;9.986;2023-03-23T11:05:44;10.10;;;1.87;;
12369;SDS011;6249;52.128;9.986;2023-03-23T11:09:11;6.23;;;2.00;;
12369;SDS011;6249;52.128;9.986;2023-03-23T11:12:37;7.43;;;1.27;;
12369;SDS011;6249;52.128;9.986;2023-03-23T11:15:58;14.63;;;2.07;;
12369;SDS011;6249;52.128;9.986;2023-03-23T11:19:33;6.80;;;1.70;;
12369;SDS011;6249;52.128;9.986;2023-03-23T11:22:57;5.07;;;1.50;;
12369;SDS011;6249;52.128;9.986;2023-03-23T11:26:22;6.13;;;1.83;;
12369;SDS011;6249;52.128;9.986;2023-03-23T11:33:13;5.37;;;1.80;;
12369;SDS011;6249;52.128;9.986;2023-03-23T11:36:37;5.40;;;1.60;;
12369;SDS011;6249;52.128;9.986;2023-03-23T11:43:31;7.07;;;2.10;;
12369;SDS011;6249;52.128;9.986;2023-03-23T11:47:04;8.73;;;1.63;;
12369;SDS011;6249;52.128;9.986;2023-03-23T11:50:52;5.70;;;1.70;;
12369;SDS011;6249;52.128;9.986;2023-03-23T11:57:55;11.20;;;1.90;;
12369;SDS011;6249;52.128;9.986;2023-03-23T12:01:37;8.23;;;1.87;;
12369;SDS011;6249;52.128;9.986;2023-03-23T12:12:22;8.60;;;2.20;;
12369;SDS011;6249;52.128;9.986;2023-03-23T12:15:55;7.93;;;2.10;;
12369;SDS011;6249;52.128;9.986;2023-03-23T12:26:47;6.83;;;1.90;;
12369;SDS011;6249;52.128;9.986;2023-03-23T12:30:22;6.93;;;1.77;;
12369;SDS011;6249;52.128;9.986;2023-03-23T12:34:10;5.17;;;1.80;;
12369;SDS011;6249;52.128;9.986;2023-03-23T12:37:53;7.20;;;1.90;;
12369;SDS011;6249;52.128;9.986;2023-03-23T12:41:20;13.70;;;2.33;;
12369;SDS011;6249;52.128;9.986;2023-03-23T12:44:50;8.30;;;2.40;;
12369;SDS011;6249;52.128;9.986;2023-03-23T12:48:23;8.53;;;2.07;;
12369;SDS011;6249;52.128;9.986;2023-03-23T12:55:49;11.93;;;2.57;;
12369;SDS011;6249;52.128;9.986;2023-03-23T12:59:42;6.87;;;1.70;;
12369;SDS011;6249;52.128;9.986;2023-03-23T13:07:16;6.03;;;1.70;;
12369;SDS011;6249;52.128;9.986;2023-03-23T13:10:47;6.57;;;1.60;;
12369;SDS011;6249;52.128;9.986;2023-03-23T13:14:22;4.60;;;1.40;;
12369;SDS011;6249;52.128;9.986;2023-03-23T13:17:56;19.03;;;2.83;;
12369;SDS011;6249;52.128;9.986;2023-03-23T13:25:14;7.40;;;1.70;;
12369;SDS011;6249;52.128;9.986;2023-03-23T13:32:34;21.90;;;3.67;;
12369;SDS011;6249;52.128;9.986;2023-03-23T13:35:57;3.50;;;1.30;;
12369;SDS011;6249;52.128;9.986;2023-03-23T13:42:54;3.97;;;0.97;;
12369;SDS011;6249;52.128;9.986;2023-03-23T13:49:45;3.23;;;0.90;;
12369;SDS011;6249;52.128;9.986;2023-03-23T13:53:13;4.50;;;1.80;;
12369;SDS011;6249;52.128;9.986;2023-03-23T13:56:42;3.53;;;0.83;;
12369;SDS011;6249;52.128;9.986;2023-03-23T14:03:54;4.00;;;0.70;;
12369;SDS011;6249;52.128;9.986;2023-03-23T14:07:16;2.53;;;0.90;;
12369;SDS011;6249;52.128;9.986;2023-03-23T14:10:43;10.40;;;1.53;;
12369;SDS011;6249;52.128;9.986;2023-03-23T14:14:15;15.20;;;1.30;;
12369;SDS011;6249;52.128;9.986;2023-03-23T14:17:42;3.80;;;1.27;;
12369;SDS011;6249;52.128;9.986;2023-03-23T14:21:05;4.97;;;1.17;;
12369;SDS011;6249;52.128;9.986;2023-03-23T14:24:38;6.13;;;1.20;;
12369;SDS011;6249;52.128;9.986;2023-03-23T14:28:01;3.83;;;1.10;;
12369;SDS011;6249;52.128;9.986;2023-03-23T14:31:25;5.80;;;1.40;;
12369;SDS011;6249;52.128;9.986;2023-03-23T14:34:49;7.03;;;1.73;;
12369;SDS011;6249;52.128;9.986;2023-03-23T14:38:14;22.33;;;3.10;;
12369;SDS011;6249;52.128;9.986;2023-03-23T14:41:40;5.33;;;1.30;;
12369;SDS011;6249;52.128;9.986;2023-03-23T14:45:04;5.70;;;1.30;;
12369;SDS011;6249;52.128;9.986;2023-03-23T14:48:28;6.27;;;1.43;;
12369;SDS011;6249;52.128;9.986;2023-03-23T14:51:50;12.50;;;1.40;;
12369;SDS011;6249;52.128;9.986;2023-03-23T14:55:14;8.47;;;1.90;;
12369;SDS011;6249;52.128;9.986;2023-03-23T14:58:49;3.27;;;1.50;;
12369;SDS011;6249;52.128;9.986;2023-03-23T15:02:16;3.63;;;1.60;;
12369;SDS011;6249;52.128;9.986;2023-03-23T15:05:49;4.30;;;1.50;;
12369;SDS011;6249;52.128;9.986;2023-03-23T15:09:22;5.13;;;1.40;;
12369;SDS011;6249;52.128;9.986;2023-03-23T15:12:44;8.70;;;2.20;;
12369;SDS011;6249;52.128;9.986;2023-03-23T15:16:13;4.30;;;1.30;;
12369;SDS011;6249;52.128;9.986;2023-03-23T15:19:42;4.33;;;1.60;;
12369;SDS011;6249;52.128;9.986;2023-03-23T15:23:05;3.80;;;1.30;;
12369;SDS011;6249;52.128;9.986;2023-03-23T15:26:33;7.23;;;1.60;;
12369;SDS011;6249;52.128;9.986;2023-03-23T15:33:55;4.23;;;1.77;;
12369;SDS011;6249;52.128;9.986;2023-03-23T15:37:20;3.50;;;1.53;;
12369;SDS011;6249;52.128;9.986;2023-03-23T15:40:48;5.30;;;2.07;;
12369;SDS011;6249;52.128;9.986;2023-03-23T15:44:19;6.40;;;1.80;;
12369;SDS011;6249;52.128;9.986;2023-03-23T15:47:49;6.07;;;2.00;;
12369;SDS011;6249;52.128;9.986;2023-03-23T15:51:12;3.80;;;1.90;;
12369;SDS011;6249;52.128;9.986;2023-03-23T15:54:33;8.90;;;1.87;;
12369;SDS011;6249;52.128;9.986;2023-03-23T15:57:55;7.40;;;2.47;;
12369;SDS011;6249;52.128;9.986;2023-03-23T16:01:18;4.37;;;1.80;;
12369;SDS011;6249;52.128;9.986;2023-03-23T16:04:44;3.20;;;1.30;;
12369;SDS011;6249;52.128;9.986;2023-03-23T16:08:08;5.63;;;1.73;;
12369;SDS011;6249;52.128;9.986;2023-03-23T16:11:32;7.20;;;1.50;;
12369;SDS011;6249;52.128;9.986;2023-03-23T16:14:53;3.93;;;1.80;;
12369;SDS011;6249;52.128;9.986;2023-03-23T16:18:18;4.20;;;1.50;;
12369;SDS011;6249;52.128;9.986;2023-03-23T16:21:40;2.33;;;1.07;;
12369;SDS011;6249;52.128;9.986;2023-03-23T16:25:04;4.13;;;1.30;;
12369;SDS011;6249;52.128;9.986;2023-03-23T16:28:25;6.70;;;1.40;;
12369;SDS011;6249;52.128;9.986;2023-03-23T16:31:45;3.30;;;1.13;;
12369;SDS011;6249;52.128;9.986;2023-03-23T16:35:08;4.37;;;1.30;;
12369;SDS011;6249;52.128;9.986;2023-03-23T16:38:30;5.43;;;1.43;;
12369;SDS011;6249;52.128;9.986;2023-03-23T16:41:56;8.10;;;1.43;;
12369;SDS011;6249;52.128;9.986;2023-03-23T16:45:19;8.20;;;1.70;;
12369;SDS011;6249;52.128;9.986;2023-03-23T16:48:40;3.93;;;2.00;;
12369;SDS011;6249;52.128;9.986;2023-03-23T16:52:00;6.17;;;2.10;;
12369;SDS011;6249;52.128;9.986;2023-03-23T16:55:21;6.20;;;2.10;;
12369;SDS011;6249;52.128;9.986;2023-03-23T16:58:42;4.67;;;1.90;;
12369;SDS011;6249;52.128;9.986;2023-03-23T17:02:04;6.17;;;2.10;;
12369;SDS011;6249;52.128;9.986;2023-03-23T17:05:26;7.67;;;1.87;;
12369;SDS011;6249;52.128;9.986;2023-03-23T17:08:48;6.37;;;2.20;;
12369;SDS011;6249;52.128;9.986;2023-03-23T17:12:08;6.50;;;2.20;;
12369;SDS011;6249;52.128;9.986;2023-03-23T17:15:29;5.50;;;2.30;;
12369;SDS011;6249;52.128;9.986;2023-03-23T17:18:50;10.30;;;3.20;;
12369;SDS011;6249;52.128;9.986;2023-03-23T17:22:11;5.33;;;2.63;;
12369;SDS011;6249;52.128;9.986;2023-03-23T17:25:31;4.70;;;2.10;;
12369;SDS011;6249;52.128;9.986;2023-03-23T17:28:52;5.63;;;2.23;;
12369;SDS011;6249;52.128;9.986;2023-03-23T17:32:15;15.80;;;2.63;;
12369;SDS011;6249;52.128;9.986;2023-03-23T17:35:36;5.07;;;2.47;;
12369;SDS011;6249;52.128;9.986;2023-03-23T17:38:57;5.57;;;2.43;;
12369;SDS011;6249;52.128;9.986;2023-03-23T17:42:17;2.60;;;1.23;;
12369;SDS011;6249;52.128;9.986;2023-03-23T17:45:39;2.90;;;1.40;;
12369;SDS011;6249;52.128;9.986;2023-03-23T17:49:00;7.70;;;1.50;;
12369;SDS011;6249;52.128;9.986;2023-03-23T17:52:20;8.53;;;1.80;;
12369;SDS011;6249;52.128;9.986;2023-03-23T17:55:44;9.57;;;1.63;;
12369;SDS011;6249;52.128;9.986;2023-03-23T17:59:05;5.17;;;1.70;;
12369;SDS011;6249;52.128;9.986;2023-03-23T18:02:26;11.63;;;1.70;;
12369;SDS011;6249;52.128;9.986;2023-03-23T18:05:47;4.50;;;1.17;;
12369;SDS011;6249;52.128;9.986;2023-03-23T18:09:11;4.13;;;1.33;;
12369;SDS011;6249;52.128;9.986;2023-03-23T18:12:32;4.43;;;1.70;;
12369;SDS011;6249;52.128;9.986;2023-03-23T18:15:53;3.80;;;1.40;;
12369;SDS011;6249;52.128;9.986;2023-03-23T18:19:15;3.50;;;1.40;;
12369;SDS011;6249;52.128;9.986;2023-03-23T18:22:38;4.27;;;1.30;;
12369;SDS011;6249;52.128;9.986;2023-03-23T18:25:59;6.50;;;1.87;;
12369;SDS011;6249;52.128;9.986;2023-03-23T18:29:22;4.87;;;1.37;;
12369;SDS011;6249;52.128;9.986;2023-03-23T18:32:42;4.90;;;1.83;;
12369;SDS011;6249;52.128;9.986;2023-03-23T18:36:08;4.03;;;1.33;;
12369;SDS011;6249;52.128;9.986;2023-03-23T18:39:30;3.60;;;1.50;;
12369;SDS011;6249;52.128;9.986;2023-03-23T18:42:52;7.87;;;1.50;;
12369;SDS011;6249;52.128;9.986;2023-03-23T18:46:13;4.83;;;1.43;;
12369;SDS011;6249;52.128;9.986;2023-03-23T18:49:36;3.40;;;1.37;;
12369;SDS011;6249;52.128;9.986;2023-03-23T18:52:59;5.30;;;2.07;;
12369;SDS011;6249;52.128;9.986;2023-03-23T18:56:22;4.47;;;1.90;;
12369;SDS011;6249;52.128;9.986;2023-03-23T18:59:45;9.60;;;1.77;;
12369;SDS011;6249;52.128;9.986;2023-03-23T19:03:06;3.13;;;1.40;;
12369;SDS011;6249;52.128;9.986;2023-03-23T19:06:28;10.67;;;1.83;;
12369;SDS011;6249;52.128;9.986;2023-03-23T19:09:51;5.53;;;2.07;;
12369;SDS011;6249;52.128;9.986;2023-03-23T19:13:11;10.17;;;4.00;;
12369;SDS011;6249;52.128;9.986;2023-03-23T19:16:36;4.87;;;2.27;;
12369;SDS011;6249;52.128;9.986;2023-03-23T19:19:59;3.77;;;1.80;;
12369;SDS011;6249;52.128;9.986;2023-03-23T19:23:22;6.97;;;2.50;;
12369;SDS011;6249;52.128;9.986;2023-03-23T19:26:43;3.63;;;1.90;;
12369;SDS011;6249;52.128;9.986;2023-03-23T19:30:07;9.13;;;3.73;;
12369;SDS011;6249;52.128;9.986;2023-03-23T19:33:31;13.50;;;4.27;;
12369;SDS011;6249;52.128;9.986;2023-03-23T19:36:51;10.37;;;4.10;;
12369;SDS011;6249;52.128;9.986;2023-03-23T19:40:12;7.03;;;3.47;;
12369;SDS011;6249;52.128;9.986;2023-03-23T19:43:33;6.30;;;2.80;;
12369;SDS011;6249;52.128;9.986;2023-03-23T19:46:58;5.53;;;2.50;;
12369;SDS011;6249;52.128;9.986;2023-03-23T19:50:19;9.70;;;3.80;;
12369;SDS011;6249;52.128;9.986;2023-03-23T19:53:40;13.90;;;4.70;;
12369;SDS011;6249;52.128;9.986;2023-03-23T19:57:01;6.73;;;3.50;;
12369;SDS011;6249;52.128;9.986;2023-03-23T20:00:22;8.80;;;4.27;;
12369;SDS011;6249;52.128;9.986;2023-03-23T20:03:45;7.53;;;4.10;;
12369;SDS011;6249;52.128;9.986;2023-03-23T20:07:08;8.77;;;4.10;;
12369;SDS011;6249;52.128;9.986;2023-03-23T20:10:29;8.87;;;3.97;;
12369;SDS011;6249;52.128;9.986;2023-03-23T20:13:53;9.90;;;4.00;;
12369;SDS011;6249;52.128;9.986;2023-03-23T20:17:14;9.80;;;3.80;;
12369;SDS011;6249;52.128;9.986;2023-03-23T20:20:35;10.73;;;3.90;;
12369;SDS011;6249;52.128;9.986;2023-03-23T20:23:56;7.47;;;3.93;;
12369;SDS011;6249;52.128;9.986;2023-03-23T20:27:17;8.80;;;3.23;;
12369;SDS011;6249;52.128;9.986;2023-03-23T20:30:40;6.00;;;3.27;;
12369;SDS011;6249;52.128;9.986;2023-03-23T20:34:03;5.63;;;3.20;;
12369;SDS011;6249;52.128;9.986;2023-03-23T20:37:32;7.20;;;2.93;;
12369;SDS011;6249;52.128;9.986;2023-03-23T20:40:53;4.73;;;2.73;;
12369;SDS011;6249;52.128;9.986;2023-03-23T20:44:17;9.63;;;3.30;;
12369;SDS011;6249;52.128;9.986;2023-03-23T20:47:39;7.07;;;3.20;;
12369;SDS011;6249;52.128;9.986;2023-03-23T20:51:01;8.93;;;3.47;;
12369;SDS011;6249;52.128;9.986;2023-03-23T20:54:25;4.00;;;2.00;;
12369;SDS011;6249;52.128;9.986;2023-03-23T20:57:49;6.40;;;2.33;;
12369;SDS011;6249;52.128;9.986;2023-03-23T21:01:09;7.27;;;2.47;;
12369;SDS011;6249;52.128;9.986;2023-03-23T21:04:32;9.50;;;2.77;;
12369;SDS011;6249;52.128;9.986;2023-03-23T21:07:56;6.03;;;1.90;;
12369;SDS011;6249;52.128;9.986;2023-03-23T21:11:19;8.77;;;1.90;;
12369;SDS011;6249;52.128;9.986;2023-03-23T21:14:41;6.57;;;1.73;;
12369;SDS011;6249;52.128;9.986;2023-03-23T21:18:03;5.60;;;2.00;;
12369;SDS011;6249;52.128;9.986;2023-03-23T21:21:25;3.90;;;1.60;;
12369;SDS011;6249;52.128;9.986;2023-03-23T21:24:47;4.23;;;1.23;;
12369;SDS011;6249;52.128;9.986;2023-03-23T21:28:10;3.10;;;1.30;;
12369;SDS011;6249;52.128;9.986;2023-03-23T21:31:31;9.50;;;2.07;;
12369;SDS011;6249;52.128;9.986;2023-03-23T21:34:54;6.40;;;2.00;;
12369;SDS011;6249;52.128;9.986;2023-03-23T21:38:17;3.70;;;2.23;;
12369;SDS011;6249;52.128;9.986;2023-03-23T21:41:45;3.70;;;1.40;;
12369;SDS011;6249;52.128;9.986;2023-03-23T21:45:10;3.33;;;1.47;;
12369;SDS011;6249;52.128;9.986;2023-03-23T21:48:37;5.07;;;1.67;;
12369;SDS011;6249;52.128;9.986;2023-03-23T21:52:02;3.57;;;1.90;;
12369;SDS011;6249;52.128;9.986;2023-03-23T21:55:23;5.13;;;2.10;;
12369;SDS011;6249;52.128;9.986;2023-03-23T21:58:48;4.50;;;2.33;;
12369;SDS011;6249;52.128;9.986;2023-03-23T22:02:14;6.53;;;2.57;;
12369;SDS011;6249;52.128;9.986;2023-03-23T22:05:38;5.60;;;2.30;;
12369;SDS011;6249;52.128;9.986;2023-03-23T22:08:59;5.30;;;1.63;;
12369;SDS011;6249;52.128;9.986;2023-03-23T22:12:24;4.43;;;1.43;;
12369;SDS011;6249;52.128;9.986;2023-03-23T22:15:45;6.33;;;1.87;;
12369;SDS011;6249;52.128;9.986;2023-03-23T22:19:08;3.23;;;1.63;;
12369;SDS011;6249;52.128;9.986;2023-03-23T22:22:29;5.73;;;1.97;;
12369;SDS011;6249;52.128;9.986;2023-03-23T22:25:52;7.53;;;2.17;;
12369;SDS011;6249;52.128;9.986;2023-03-23T22:29:13;7.80;;;2.10;;